sensor_id;sensor_type;location;lat;lon;timestamp;P1;durP1;ratioP1;P2;durP2;ratioP2
20476;SDS011;10397;50.948;11.092;2022-07-29T00:00:30;7.10;;;1.40;;
20476;SDS011;10397;50.948;11.092;2022-07-29T00:03:02;2.50;;;0.98;;
20476;SDS011;10397;50.948;11.092;2022-07-29T00:05:33;5.12;;;0.90;;
20476;SDS011;10397;50.948;11.092;2022-07-29T00:08:04;4.72;;;1.05;;
20476;SDS011;10397;50.948;11.092;2022-07-29T00:10:35;3.92;;;0.90;;
20476;SDS011;10397;50.948;11.092;2022-07-29T00:13:07;2.20;;;0.80;;
20476;SDS011;10397;50.948;11.092;2022-07-29T00:15:38;3.95;;;1.15;;
20476;SDS011;10397;50.948;11.092;2022-07-29T00:18:10;3.58;;;1.00;;
20476;SDS011;10397;50.948;11.092;2022-07-29T00:20:41;4.28;;;0.95;;
20476;SDS011;10397;50.948;11.092;2022-07-29T00:23:13;6.45;;;1.10;;
20476;SDS011;10397;50.948;11.092;2022-07-29T00:25:44;4.75;;;1.12;;
20476;SDS011;10397;50.948;11.092;2022-07-29T00:28:16;3.70;;;0.90;;
20476;SDS011;10397;50.948;11.092;2022-07-29T00:30:48;3.05;;;0.78;;
20476;SDS011;10397;50.948;11.092;2022-07-29T00:33:19;4.12;;;0.70;;
20476;SDS011;10397;50.948;11.092;2022-07-29T00:35:51;6.92;;;1.02;;
20476;SDS011;10397;50.948;11.092;2022-07-29T00:38:22;2.98;;;1.07;;
20476;SDS011;10397;50.948;11.092;2022-07-29T00:40:54;7.42;;;1.00;;
20476;SDS011;10397;50.948;11.092;2022-07-29T00:43:25;4.22;;;0.88;;
20476;SDS011;10397;50.948;11.092;2022-07-29T00:45:57;3.25;;;1.00;;
20476;SDS011;10397;50.948;11.092;2022-07-29T00:48:28;3.10;;;1.00;;
20476;SDS011;10397;50.948;11.092;2022-07-29T00:51:00;3.20;;;1.10;;
20476;SDS011;10397;50.948;11.092;2022-07-29T00:53:31;4.22;;;0.98;;
20476;SDS011;10397;50.948;11.092;2022-07-29T00:56:02;2.50;;;1.05;;
20476;SDS011;10397;50.948;11.092;2022-07-29T00:58:33;7.92;;;1.05;;
20476;SDS011;10397;50.948;11.092;2022-07-29T01:01:05;1.75;;;0.70;;
20476;SDS011;10397;50.948;11.092;2022-07-29T01:03:36;3.92;;;1.00;;
20476;SDS011;10397;50.948;11.092;2022-07-29T01:06:08;5.03;;;1.40;;
20476;SDS011;10397;50.948;11.092;2022-07-29T01:08:39;3.90;;;0.70;;
20476;SDS011;10397;50.948;11.092;2022-07-29T01:11:11;1.57;;;0.75;;
20476;SDS011;10397;50.948;11.092;2022-07-29T01:13:42;3.80;;;0.78;;
20476;SDS011;10397;50.948;11.092;2022-07-29T01:16:15;4.00;;;0.80;;
20476;SDS011;10397;50.948;11.092;2022-07-29T01:18:46;3.60;;;0.78;;
20476;SDS011;10397;50.948;11.092;2022-07-29T01:22:06;3.17;;;0.80;;
20476;SDS011;10397;50.948;11.092;2022-07-29T01:27:16;3.73;;;0.90;;
20476;SDS011;10397;50.948;11.092;2022-07-29T01:29:41;5.50;;;1.27;;
20476;SDS011;10397;50.948;11.092;2022-07-29T01:32:18;4.03;;;0.90;;
20476;SDS011;10397;50.948;11.092;2022-07-29T01:34:50;3.80;;;0.80;;
20476;SDS011;10397;50.948;11.092;2022-07-29T01:37:20;8.53;;;0.70;;
20476;SDS011;10397;50.948;11.092;2022-07-29T01:39:51;1.67;;;0.80;;
20476;SDS011;10397;50.948;11.092;2022-07-29T01:42:32;1.32;;;0.53;;
20476;SDS011;10397;50.948;11.092;2022-07-29T01:45:12;2.57;;;0.70;;
20476;SDS011;10397;50.948;11.092;2022-07-29T01:47:54;2.07;;;0.60;;
20476;SDS011;10397;50.948;11.092;2022-07-29T01:50:34;2.37;;;0.70;;
20476;SDS011;10397;50.948;11.092;2022-07-29T01:53:04;3.83;;;0.70;;
20476;SDS011;10397;50.948;11.092;2022-07-29T01:55:36;3.95;;;0.60;;
20476;SDS011;10397;50.948;11.092;2022-07-29T01:58:06;3.75;;;1.15;;
20476;SDS011;10397;50.948;11.092;2022-07-29T02:00:38;2.75;;;0.70;;
20476;SDS011;10397;50.948;11.092;2022-07-29T02:03:09;3.90;;;0.93;;
20476;SDS011;10397;50.948;11.092;2022-07-29T02:05:40;2.87;;;0.70;;
20476;SDS011;10397;50.948;11.092;2022-07-29T02:08:10;2.20;;;0.60;;
20476;SDS011;10397;50.948;11.092;2022-07-29T02:10:42;3.52;;;0.60;;
20476;SDS011;10397;50.948;11.092;2022-07-29T02:13:12;6.57;;;1.00;;
20476;SDS011;10397;50.948;11.092;2022-07-29T02:15:43;3.55;;;0.85;;
20476;SDS011;10397;50.948;11.092;2022-07-29T02:18:17;3.20;;;0.60;;
20476;SDS011;10397;50.948;11.092;2022-07-29T02:20:48;2.90;;;1.00;;
20476;SDS011;10397;50.948;11.092;2022-07-29T02:23:19;4.03;;;1.07;;
20476;SDS011;10397;50.948;11.092;2022-07-29T02:25:50;1.53;;;0.87;;
20476;SDS011;10397;50.948;11.092;2022-07-29T02:28:21;3.95;;;0.65;;
20476;SDS011;10397;50.948;11.092;2022-07-29T02:30:52;3.55;;;0.80;;
20476;SDS011;10397;50.948;11.092;2022-07-29T02:33:22;3.77;;;0.65;;
20476;SDS011;10397;50.948;11.092;2022-07-29T02:35:54;2.30;;;0.70;;
20476;SDS011;10397;50.948;11.092;2022-07-29T02:38:25;5.60;;;0.82;;
20476;SDS011;10397;50.948;11.092;2022-07-29T02:41:15;2.73;;;0.80;;
20476;SDS011;10397;50.948;11.092;2022-07-29T02:43:46;2.42;;;0.70;;
20476;SDS011;10397;50.948;11.092;2022-07-29T02:46:18;1.67;;;0.60;;
20476;SDS011;10397;50.948;11.092;2022-07-29T02:48:51;3.90;;;0.82;;
20476;SDS011;10397;50.948;11.092;2022-07-29T02:51:23;1.82;;;0.70;;
20476;SDS011;10397;50.948;11.092;2022-07-29T02:53:51;1.22;;;0.62;;
20476;SDS011;10397;50.948;11.092;2022-07-29T02:56:23;3.67;;;1.15;;
20476;SDS011;10397;50.948;11.092;2022-07-29T02:58:56;1.80;;;0.67;;
20476;SDS011;10397;50.948;11.092;2022-07-29T03:01:27;1.77;;;0.68;;
20476;SDS011;10397;50.948;11.092;2022-07-29T03:03:57;2.05;;;0.80;;
20476;SDS011;10397;50.948;11.092;2022-07-29T03:06:27;3.70;;;0.60;;
20476;SDS011;10397;50.948;11.092;2022-07-29T03:08:59;2.27;;;0.70;;
20476;SDS011;10397;50.948;11.092;2022-07-29T03:11:30;4.42;;;0.70;;
20476;SDS011;10397;50.948;11.092;2022-07-29T03:14:01;3.55;;;0.98;;
20476;SDS011;10397;50.948;11.092;2022-07-29T03:16:33;2.10;;;0.70;;
20476;SDS011;10397;50.948;11.092;2022-07-29T03:19:03;1.50;;;0.70;;
20476;SDS011;10397;50.948;11.092;2022-07-29T03:21:34;2.40;;;0.80;;
20476;SDS011;10397;50.948;11.092;2022-07-29T03:24:06;1.85;;;0.80;;
20476;SDS011;10397;50.948;11.092;2022-07-29T03:26:37;3.45;;;0.85;;
20476;SDS011;10397;50.948;11.092;2022-07-29T03:29:08;2.12;;;0.60;;
20476;SDS011;10397;50.948;11.092;2022-07-29T03:31:40;1.95;;;0.70;;
20476;SDS011;10397;50.948;11.092;2022-07-29T03:34:12;3.33;;;0.50;;
20476;SDS011;10397;50.948;11.092;2022-07-29T03:36:44;5.92;;;0.57;;
20476;SDS011;10397;50.948;11.092;2022-07-29T03:39:17;1.98;;;0.70;;
20476;SDS011;10397;50.948;11.092;2022-07-29T03:41:46;2.92;;;0.72;;
20476;SDS011;10397;50.948;11.092;2022-07-29T03:44:17;1.98;;;0.68;;
20476;SDS011;10397;50.948;11.092;2022-07-29T03:46:49;1.82;;;0.72;;
20476;SDS011;10397;50.948;11.092;2022-07-29T03:49:20;7.65;;;0.98;;
20476;SDS011;10397;50.948;11.092;2022-07-29T03:51:51;2.17;;;0.70;;
20476;SDS011;10397;50.948;11.092;2022-07-29T03:54:22;2.58;;;0.80;;
20476;SDS011;10397;50.948;11.092;2022-07-29T03:56:53;1.67;;;0.60;;
20476;SDS011;10397;50.948;11.092;2022-07-29T03:59:25;3.00;;;0.70;;
20476;SDS011;10397;50.948;11.092;2022-07-29T04:01:56;2.65;;;0.80;;
20476;SDS011;10397;50.948;11.092;2022-07-29T04:04:27;3.85;;;0.75;;
20476;SDS011;10397;50.948;11.092;2022-07-29T04:06:59;5.30;;;1.05;;
20476;SDS011;10397;50.948;11.092;2022-07-29T04:09:29;2.47;;;0.60;;
20476;SDS011;10397;50.948;11.092;2022-07-29T04:12:01;2.30;;;0.62;;
20476;SDS011;10397;50.948;11.092;2022-07-29T04:14:32;1.57;;;0.80;;
20476;SDS011;10397;50.948;11.092;2022-07-29T04:17:03;2.20;;;0.72;;
20476;SDS011;10397;50.948;11.092;2022-07-29T04:19:34;6.62;;;0.60;;
20476;SDS011;10397;50.948;11.092;2022-07-29T04:22:06;2.12;;;0.70;;
20476;SDS011;10397;50.948;11.092;2022-07-29T04:24:37;3.00;;;0.68;;
20476;SDS011;10397;50.948;11.092;2022-07-29T04:27:09;2.83;;;0.70;;
20476;SDS011;10397;50.948;11.092;2022-07-29T04:29:40;3.40;;;0.93;;
20476;SDS011;10397;50.948;11.092;2022-07-29T04:32:12;2.72;;;0.50;;
20476;SDS011;10397;50.948;11.092;2022-07-29T04:34:44;2.45;;;0.70;;
20476;SDS011;10397;50.948;11.092;2022-07-29T04:37:15;2.58;;;0.80;;
20476;SDS011;10397;50.948;11.092;2022-07-29T04:39:47;4.15;;;0.80;;
20476;SDS011;10397;50.948;11.092;2022-07-29T04:42:19;2.85;;;0.98;;
20476;SDS011;10397;50.948;11.092;2022-07-29T04:44:50;3.02;;;0.80;;
20476;SDS011;10397;50.948;11.092;2022-07-29T04:47:22;2.58;;;0.80;;
20476;SDS011;10397;50.948;11.092;2022-07-29T04:49:54;4.42;;;0.70;;
20476;SDS011;10397;50.948;11.092;2022-07-29T04:52:25;3.45;;;0.82;;
20476;SDS011;10397;50.948;11.092;2022-07-29T04:54:56;3.92;;;0.72;;
20476;SDS011;10397;50.948;11.092;2022-07-29T04:57:28;8.05;;;1.10;;
20476;SDS011;10397;50.948;11.092;2022-07-29T04:59:59;6.47;;;1.07;;
20476;SDS011;10397;50.948;11.092;2022-07-29T05:02:30;3.20;;;0.80;;
20476;SDS011;10397;50.948;11.092;2022-07-29T05:05:02;4.72;;;1.05;;
20476;SDS011;10397;50.948;11.092;2022-07-29T05:07:33;3.15;;;0.70;;
20476;SDS011;10397;50.948;11.092;2022-07-29T05:10:05;4.17;;;0.80;;
20476;SDS011;10397;50.948;11.092;2022-07-29T05:12:36;2.72;;;1.07;;
20476;SDS011;10397;50.948;11.092;2022-07-29T05:15:07;2.98;;;0.78;;
20476;SDS011;10397;50.948;11.092;2022-07-29T05:17:38;1.60;;;0.88;;
20476;SDS011;10397;50.948;11.092;2022-07-29T05:20:10;7.55;;;0.85;;
20476;SDS011;10397;50.948;11.092;2022-07-29T05:22:41;4.45;;;0.80;;
20476;SDS011;10397;50.948;11.092;2022-07-29T05:25:13;10.48;;;1.35;;
20476;SDS011;10397;50.948;11.092;2022-07-29T05:27:44;3.83;;;0.60;;
20476;SDS011;10397;50.948;11.092;2022-07-29T05:30:16;2.87;;;0.90;;
20476;SDS011;10397;50.948;11.092;2022-07-29T05:32:47;3.02;;;0.90;;
20476;SDS011;10397;50.948;11.092;2022-07-29T05:35:18;6.45;;;1.15;;
20476;SDS011;10397;50.948;11.092;2022-07-29T05:37:49;5.03;;;0.85;;
20476;SDS011;10397;50.948;11.092;2022-07-29T05:40:21;1.60;;;0.65;;
20476;SDS011;10397;50.948;11.092;2022-07-29T05:42:51;6.23;;;0.97;;
20476;SDS011;10397;50.948;11.092;2022-07-29T05:45:23;6.12;;;0.95;;
20476;SDS011;10397;50.948;11.092;2022-07-29T05:47:53;3.93;;;1.00;;
20476;SDS011;10397;50.948;11.092;2022-07-29T05:50:24;4.08;;;1.00;;
20476;SDS011;10397;50.948;11.092;2022-07-29T05:52:56;5.03;;;0.95;;
20476;SDS011;10397;50.948;11.092;2022-07-29T05:55:27;3.58;;;0.90;;
20476;SDS011;10397;50.948;11.092;2022-07-29T05:57:58;2.75;;;0.85;;
20476;SDS011;10397;50.948;11.092;2022-07-29T06:00:30;3.08;;;1.25;;
20476;SDS011;10397;50.948;11.092;2022-07-29T06:03:01;3.67;;;0.80;;
20476;SDS011;10397;50.948;11.092;2022-07-29T06:05:32;2.40;;;0.78;;
20476;SDS011;10397;50.948;11.092;2022-07-29T06:08:04;5.95;;;0.90;;
20476;SDS011;10397;50.948;11.092;2022-07-29T06:10:35;2.97;;;0.80;;
20476;SDS011;10397;50.948;11.092;2022-07-29T06:13:06;6.22;;;1.00;;
20476;SDS011;10397;50.948;11.092;2022-07-29T06:15:37;7.28;;;1.20;;
20476;SDS011;10397;50.948;11.092;2022-07-29T06:18:09;2.80;;;0.80;;
20476;SDS011;10397;50.948;11.092;2022-07-29T06:20:40;4.25;;;0.90;;
20476;SDS011;10397;50.948;11.092;2022-07-29T06:23:11;1.67;;;0.70;;
20476;SDS011;10397;50.948;11.092;2022-07-29T06:25:43;3.37;;;0.70;;
20476;SDS011;10397;50.948;11.092;2022-07-29T06:28:14;5.97;;;0.75;;
20476;SDS011;10397;50.948;11.092;2022-07-29T06:30:45;5.15;;;0.98;;
20476;SDS011;10397;50.948;11.092;2022-07-29T06:33:17;4.47;;;0.85;;
20476;SDS011;10397;50.948;11.092;2022-07-29T06:35:47;5.77;;;1.00;;
20476;SDS011;10397;50.948;11.092;2022-07-29T06:38:18;10.38;;;1.20;;
20476;SDS011;10397;50.948;11.092;2022-07-29T06:43:43;8.40;;;0.93;;
20476;SDS011;10397;50.948;11.092;2022-07-29T06:46:14;8.15;;;1.10;;
20476;SDS011;10397;50.948;11.092;2022-07-29T06:48:47;5.47;;;0.90;;
20476;SDS011;10397;50.948;11.092;2022-07-29T06:51:18;8.10;;;1.37;;
20476;SDS011;10397;50.948;11.092;2022-07-29T06:53:50;4.30;;;1.20;;
20476;SDS011;10397;50.948;11.092;2022-07-29T06:56:23;4.37;;;0.87;;
20476;SDS011;10397;50.948;11.092;2022-07-29T06:58:54;7.40;;;1.17;;
20476;SDS011;10397;50.948;11.092;2022-07-29T07:01:26;4.12;;;0.70;;
20476;SDS011;10397;50.948;11.092;2022-07-29T07:03:57;8.30;;;1.10;;
20476;SDS011;10397;50.948;11.092;2022-07-29T07:06:28;8.33;;;1.02;;
20476;SDS011;10397;50.948;11.092;2022-07-29T07:09:00;6.70;;;0.90;;
20476;SDS011;10397;50.948;11.092;2022-07-29T07:11:30;5.47;;;1.00;;
20476;SDS011;10397;50.948;11.092;2022-07-29T07:14:01;2.45;;;0.95;;
20476;SDS011;10397;50.948;11.092;2022-07-29T07:16:33;2.87;;;0.90;;
20476;SDS011;10397;50.948;11.092;2022-07-29T07:19:04;4.65;;;0.95;;
20476;SDS011;10397;50.948;11.092;2022-07-29T07:21:36;3.30;;;1.15;;
20476;SDS011;10397;50.948;11.092;2022-07-29T07:24:07;11.03;;;1.17;;
20476;SDS011;10397;50.948;11.092;2022-07-29T07:26:38;3.22;;;1.05;;
20476;SDS011;10397;50.948;11.092;2022-07-29T07:29:10;7.08;;;1.07;;
20476;SDS011;10397;50.948;11.092;2022-07-29T07:31:41;6.25;;;1.15;;
20476;SDS011;10397;50.948;11.092;2022-07-29T07:34:12;2.85;;;1.07;;
20476;SDS011;10397;50.948;11.092;2022-07-29T07:36:44;4.25;;;1.12;;
20476;SDS011;10397;50.948;11.092;2022-07-29T07:39:15;3.22;;;0.72;;
20476;SDS011;10397;50.948;11.092;2022-07-29T07:41:46;2.65;;;0.82;;
20476;SDS011;10397;50.948;11.092;2022-07-29T07:44:18;6.45;;;0.88;;
20476;SDS011;10397;50.948;11.092;2022-07-29T07:46:50;3.60;;;1.17;;
20476;SDS011;10397;50.948;11.092;2022-07-29T07:49:22;2.75;;;0.90;;
20476;SDS011;10397;50.948;11.092;2022-07-29T07:51:53;2.92;;;1.00;;
20476;SDS011;10397;50.948;11.092;2022-07-29T07:54:24;3.70;;;1.12;;
20476;SDS011;10397;50.948;11.092;2022-07-29T07:56:56;11.75;;;1.35;;
20476;SDS011;10397;50.948;11.092;2022-07-29T07:59:27;4.62;;;1.07;;
20476;SDS011;10397;50.948;11.092;2022-07-29T08:01:58;5.33;;;1.20;;
20476;SDS011;10397;50.948;11.092;2022-07-29T08:04:30;5.53;;;1.55;;
20476;SDS011;10397;50.948;11.092;2022-07-29T08:07:01;6.85;;;1.00;;
20476;SDS011;10397;50.948;11.092;2022-07-29T08:09:31;3.97;;;1.00;;
20476;SDS011;10397;50.948;11.092;2022-07-29T08:12:03;6.25;;;1.30;;
20476;SDS011;10397;50.948;11.092;2022-07-29T08:14:34;4.25;;;1.25;;
20476;SDS011;10397;50.948;11.092;2022-07-29T08:17:06;4.30;;;1.35;;
20476;SDS011;10397;50.948;11.092;2022-07-29T08:19:38;7.08;;;1.32;;
20476;SDS011;10397;50.948;11.092;2022-07-29T08:22:09;9.00;;;1.40;;
20476;SDS011;10397;50.948;11.092;2022-07-29T08:24:41;3.35;;;0.80;;
20476;SDS011;10397;50.948;11.092;2022-07-29T08:27:12;5.50;;;1.00;;
20476;SDS011;10397;50.948;11.092;2022-07-29T08:29:43;9.53;;;1.70;;
20476;SDS011;10397;50.948;11.092;2022-07-29T08:32:15;5.58;;;1.70;;
20476;SDS011;10397;50.948;11.092;2022-07-29T08:34:47;7.83;;;2.20;;
20476;SDS011;10397;50.948;11.092;2022-07-29T08:37:18;5.55;;;1.67;;
20476;SDS011;10397;50.948;11.092;2022-07-29T08:39:49;6.70;;;2.02;;
20476;SDS011;10397;50.948;11.092;2022-07-29T08:42:21;5.00;;;1.65;;
20476;SDS011;10397;50.948;11.092;2022-07-29T08:44:53;4.08;;;1.52;;
20476;SDS011;10397;50.948;11.092;2022-07-29T08:47:24;6.95;;;1.80;;
20476;SDS011;10397;50.948;11.092;2022-07-29T08:49:55;3.85;;;1.70;;
20476;SDS011;10397;50.948;11.092;2022-07-29T08:52:26;6.40;;;1.60;;
20476;SDS011;10397;50.948;11.092;2022-07-29T08:54:58;7.20;;;1.72;;
20476;SDS011;10397;50.948;11.092;2022-07-29T08:57:29;5.83;;;1.45;;
20476;SDS011;10397;50.948;11.092;2022-07-29T09:00:02;6.08;;;1.30;;
20476;SDS011;10397;50.948;11.092;2022-07-29T09:02:35;12.95;;;2.02;;
20476;SDS011;10397;50.948;11.092;2022-07-29T09:05:02;8.73;;;1.83;;
20476;SDS011;10397;50.948;11.092;2022-07-29T09:07:33;8.33;;;1.57;;
20476;SDS011;10397;50.948;11.092;2022-07-29T09:10:05;7.87;;;1.60;;
20476;SDS011;10397;50.948;11.092;2022-07-29T09:12:36;3.95;;;1.75;;
20476;SDS011;10397;50.948;11.092;2022-07-29T09:15:07;10.78;;;1.60;;
20476;SDS011;10397;50.948;11.092;2022-07-29T09:17:39;4.53;;;1.20;;
20476;SDS011;10397;50.948;11.092;2022-07-29T09:20:13;4.90;;;1.27;;
20476;SDS011;10397;50.948;11.092;2022-07-29T09:22:43;8.83;;;1.52;;
20476;SDS011;10397;50.948;11.092;2022-07-29T09:25:13;7.47;;;1.70;;
20476;SDS011;10397;50.948;11.092;2022-07-29T09:27:46;3.12;;;1.27;;
20476;SDS011;10397;50.948;11.092;2022-07-29T09:30:15;6.80;;;1.30;;
20476;SDS011;10397;50.948;11.092;2022-07-29T09:32:53;6.40;;;1.60;;
20476;SDS011;10397;50.948;11.092;2022-07-29T09:35:24;7.77;;;1.20;;
20476;SDS011;10397;50.948;11.092;2022-07-29T09:37:54;3.55;;;1.37;;
20476;SDS011;10397;50.948;11.092;2022-07-29T09:40:27;4.78;;;1.47;;
20476;SDS011;10397;50.948;11.092;2022-07-29T09:42:56;2.00;;;1.13;;
20476;SDS011;10397;50.948;11.092;2022-07-29T09:45:28;6.50;;;1.30;;
20476;SDS011;10397;50.948;11.092;2022-07-29T09:48:17;3.60;;;1.57;;
20476;SDS011;10397;50.948;11.092;2022-07-29T09:50:46;12.00;;;1.20;;
20476;SDS011;10397;50.948;11.092;2022-07-29T09:53:31;10.45;;;1.20;;
20476;SDS011;10397;50.948;11.092;2022-07-29T09:56:00;5.83;;;1.40;;
20476;SDS011;10397;50.948;11.092;2022-07-29T09:58:32;12.70;;;1.50;;
20476;SDS011;10397;50.948;11.092;2022-07-29T10:01:03;5.33;;;1.55;;
20476;SDS011;10397;50.948;11.092;2022-07-29T10:03:49;4.20;;;1.60;;
20476;SDS011;10397;50.948;11.092;2022-07-29T10:06:20;5.37;;;1.17;;
20476;SDS011;10397;50.948;11.092;2022-07-29T10:08:51;4.95;;;1.67;;
20476;SDS011;10397;50.948;11.092;2022-07-29T10:11:22;7.67;;;1.60;;
20476;SDS011;10397;50.948;11.092;2022-07-29T10:13:54;4.25;;;1.52;;
20476;SDS011;10397;50.948;11.092;2022-07-29T10:16:25;4.08;;;1.00;;
20476;SDS011;10397;50.948;11.092;2022-07-29T10:18:56;5.75;;;1.37;;
20476;SDS011;10397;50.948;11.092;2022-07-29T10:21:28;3.65;;;1.72;;
20476;SDS011;10397;50.948;11.092;2022-07-29T10:23:58;7.27;;;1.43;;
20476;SDS011;10397;50.948;11.092;2022-07-29T10:26:30;2.25;;;1.22;;
20476;SDS011;10397;50.948;11.092;2022-07-29T10:29:01;2.50;;;1.10;;
20476;SDS011;10397;50.948;11.092;2022-07-29T10:37:03;4.13;;;1.17;;
20476;SDS011;10397;50.948;11.092;2022-07-29T10:42:39;9.53;;;1.63;;
20476;SDS011;10397;50.948;11.092;2022-07-29T10:45:09;4.62;;;1.10;;
20476;SDS011;10397;50.948;11.092;2022-07-29T10:47:40;3.30;;;1.40;;
20476;SDS011;10397;50.948;11.092;2022-07-29T10:50:12;8.25;;;1.50;;
20476;SDS011;10397;50.948;11.092;2022-07-29T10:58:12;6.70;;;1.30;;
20476;SDS011;10397;50.948;11.092;2022-07-29T11:00:51;3.30;;;0.90;;
20476;SDS011;10397;50.948;11.092;2022-07-29T11:06:10;13.73;;;1.20;;
20476;SDS011;10397;50.948;11.092;2022-07-29T11:08:41;6.35;;;1.30;;
20476;SDS011;10397;50.948;11.092;2022-07-29T11:13:49;2.83;;;1.37;;
20476;SDS011;10397;50.948;11.092;2022-07-29T11:16:21;4.67;;;1.17;;
20476;SDS011;10397;50.948;11.092;2022-07-29T11:21:43;4.67;;;1.10;;
20476;SDS011;10397;50.948;11.092;2022-07-29T11:24:13;8.55;;;1.27;;
20476;SDS011;10397;50.948;11.092;2022-07-29T11:26:43;5.73;;;1.20;;
20476;SDS011;10397;50.948;11.092;2022-07-29T11:29:16;3.62;;;1.30;;
20476;SDS011;10397;50.948;11.092;2022-07-29T11:31:47;3.05;;;1.17;;
20476;SDS011;10397;50.948;11.092;2022-07-29T11:39:42;1.90;;;1.07;;
20476;SDS011;10397;50.948;11.092;2022-07-29T11:44:59;6.90;;;1.37;;
20476;SDS011;10397;50.948;11.092;2022-07-29T11:47:39;4.67;;;1.20;;
20476;SDS011;10397;50.948;11.092;2022-07-29T11:50:10;3.33;;;1.37;;
20476;SDS011;10397;50.948;11.092;2022-07-29T11:52:41;2.90;;;1.32;;
20476;SDS011;10397;50.948;11.092;2022-07-29T11:55:14;8.77;;;1.20;;
20476;SDS011;10397;50.948;11.092;2022-07-29T11:57:50;6.03;;;1.40;;
20476;SDS011;10397;50.948;11.092;2022-07-29T12:00:32;4.22;;;1.55;;
20476;SDS011;10397;50.948;11.092;2022-07-29T12:03:01;4.53;;;1.47;;
20476;SDS011;10397;50.948;11.092;2022-07-29T12:05:32;5.47;;;1.40;;
20476;SDS011;10397;50.948;11.092;2022-07-29T12:08:05;2.60;;;1.13;;
20476;SDS011;10397;50.948;11.092;2022-07-29T12:10:38;9.47;;;1.50;;
20476;SDS011;10397;50.948;11.092;2022-07-29T12:13:09;5.20;;;1.05;;
20476;SDS011;10397;50.948;11.092;2022-07-29T12:15:39;6.83;;;1.30;;
20476;SDS011;10397;50.948;11.092;2022-07-29T12:18:14;5.55;;;1.52;;
20476;SDS011;10397;50.948;11.092;2022-07-29T12:20:44;7.57;;;1.53;;
20476;SDS011;10397;50.948;11.092;2022-07-29T12:23:15;5.53;;;2.00;;
20476;SDS011;10397;50.948;11.092;2022-07-29T12:25:46;6.60;;;1.60;;
20476;SDS011;10397;50.948;11.092;2022-07-29T12:28:18;6.08;;;1.50;;
20476;SDS011;10397;50.948;11.092;2022-07-29T12:30:49;3.30;;;1.32;;
20476;SDS011;10397;50.948;11.092;2022-07-29T12:33:26;4.57;;;1.40;;
20476;SDS011;10397;50.948;11.092;2022-07-29T12:35:56;6.13;;;1.60;;
20476;SDS011;10397;50.948;11.092;2022-07-29T12:38:27;4.30;;;1.27;;
20476;SDS011;10397;50.948;11.092;2022-07-29T12:40:58;9.10;;;1.52;;
20476;SDS011;10397;50.948;11.092;2022-07-29T12:43:29;3.27;;;1.32;;
20476;SDS011;10397;50.948;11.092;2022-07-29T12:46:11;8.25;;;1.52;;
20476;SDS011;10397;50.948;11.092;2022-07-29T12:48:43;4.03;;;1.50;;
20476;SDS011;10397;50.948;11.092;2022-07-29T12:51:14;8.55;;;1.80;;
20476;SDS011;10397;50.948;11.092;2022-07-29T12:56:41;4.57;;;1.70;;
20476;SDS011;10397;50.948;11.092;2022-07-29T12:59:16;5.60;;;1.60;;
20476;SDS011;10397;50.948;11.092;2022-07-29T13:01:45;6.00;;;1.50;;
20476;SDS011;10397;50.948;11.092;2022-07-29T13:04:28;10.93;;;1.92;;
20476;SDS011;10397;50.948;11.092;2022-07-29T13:07:04;6.07;;;1.53;;
20476;SDS011;10397;50.948;11.092;2022-07-29T13:09:38;9.67;;;1.50;;
20476;SDS011;10397;50.948;11.092;2022-07-29T13:12:11;7.23;;;1.60;;
20476;SDS011;10397;50.948;11.092;2022-07-29T13:14:42;4.17;;;1.45;;
20476;SDS011;10397;50.948;11.092;2022-07-29T13:17:15;4.57;;;1.70;;
20476;SDS011;10397;50.948;11.092;2022-07-29T13:19:51;4.97;;;2.10;;
20476;SDS011;10397;50.948;11.092;2022-07-29T13:22:22;7.60;;;1.77;;
20476;SDS011;10397;50.948;11.092;2022-07-29T13:24:54;7.72;;;1.77;;
20476;SDS011;10397;50.948;11.092;2022-07-29T13:27:27;3.47;;;1.53;;
20476;SDS011;10397;50.948;11.092;2022-07-29T13:29:58;7.22;;;2.10;;
20476;SDS011;10397;50.948;11.092;2022-07-29T13:32:28;2.73;;;1.27;;
20476;SDS011;10397;50.948;11.092;2022-07-29T13:35:00;5.40;;;1.65;;
20476;SDS011;10397;50.948;11.092;2022-07-29T13:37:29;6.63;;;1.47;;
20476;SDS011;10397;50.948;11.092;2022-07-29T13:40:01;6.53;;;1.95;;
20476;SDS011;10397;50.948;11.092;2022-07-29T13:42:31;5.73;;;1.90;;
20476;SDS011;10397;50.948;11.092;2022-07-29T13:45:02;4.42;;;2.20;;
20476;SDS011;10397;50.948;11.092;2022-07-29T13:47:32;4.43;;;1.50;;
20476;SDS011;10397;50.948;11.092;2022-07-29T13:50:05;3.72;;;1.30;;
20476;SDS011;10397;50.948;11.092;2022-07-29T13:52:34;5.03;;;1.77;;
20476;SDS011;10397;50.948;11.092;2022-07-29T13:55:06;10.53;;;2.67;;
20476;SDS011;10397;50.948;11.092;2022-07-29T13:57:37;6.92;;;1.65;;
20476;SDS011;10397;50.948;11.092;2022-07-29T14:00:09;15.48;;;1.82;;
20476;SDS011;10397;50.948;11.092;2022-07-29T14:02:39;11.73;;;1.87;;
20476;SDS011;10397;50.948;11.092;2022-07-29T14:05:10;4.35;;;1.60;;
20476;SDS011;10397;50.948;11.092;2022-07-29T14:07:42;7.30;;;1.60;;
20476;SDS011;10397;50.948;11.092;2022-07-29T14:10:13;6.45;;;1.55;;
20476;SDS011;10397;50.948;11.092;2022-07-29T14:12:45;3.98;;;1.82;;
20476;SDS011;10397;50.948;11.092;2022-07-29T14:15:17;7.83;;;1.95;;
20476;SDS011;10397;50.948;11.092;2022-07-29T14:17:48;6.33;;;2.40;;
20476;SDS011;10397;50.948;11.092;2022-07-29T14:20:19;9.15;;;2.05;;
20476;SDS011;10397;50.948;11.092;2022-07-29T14:22:51;12.60;;;2.00;;
20476;SDS011;10397;50.948;11.092;2022-07-29T14:25:23;10.43;;;2.30;;
20476;SDS011;10397;50.948;11.092;2022-07-29T14:27:53;4.43;;;1.90;;
20476;SDS011;10397;50.948;11.092;2022-07-29T14:30:24;2.92;;;1.70;;
20476;SDS011;10397;50.948;11.092;2022-07-29T14:32:55;5.90;;;1.87;;
20476;SDS011;10397;50.948;11.092;2022-07-29T14:35:27;8.75;;;1.57;;
20476;SDS011;10397;50.948;11.092;2022-07-29T14:37:58;5.35;;;2.27;;
20476;SDS011;10397;50.948;11.092;2022-07-29T14:40:30;3.60;;;1.45;;
20476;SDS011;10397;50.948;11.092;2022-07-29T14:43:01;4.03;;;1.85;;
20476;SDS011;10397;50.948;11.092;2022-07-29T14:45:33;4.45;;;2.00;;
20476;SDS011;10397;50.948;11.092;2022-07-29T14:48:03;10.17;;;1.97;;
20476;SDS011;10397;50.948;11.092;2022-07-29T14:50:34;5.87;;;1.90;;
20476;SDS011;10397;50.948;11.092;2022-07-29T14:53:05;6.17;;;2.12;;
20476;SDS011;10397;50.948;11.092;2022-07-29T14:55:37;8.23;;;2.25;;
20476;SDS011;10397;50.948;11.092;2022-07-29T14:58:08;2.67;;;1.70;;
20476;SDS011;10397;50.948;11.092;2022-07-29T15:00:40;3.00;;;2.05;;
20476;SDS011;10397;50.948;11.092;2022-07-29T15:03:11;4.05;;;2.25;;
20476;SDS011;10397;50.948;11.092;2022-07-29T15:05:42;4.83;;;1.57;;
20476;SDS011;10397;50.948;11.092;2022-07-29T15:08:14;5.67;;;1.75;;
20476;SDS011;10397;50.948;11.092;2022-07-29T15:10:45;8.13;;;1.80;;
20476;SDS011;10397;50.948;11.092;2022-07-29T15:13:17;7.35;;;2.50;;
20476;SDS011;10397;50.948;11.092;2022-07-29T15:15:48;3.05;;;1.90;;
20476;SDS011;10397;50.948;11.092;2022-07-29T15:18:20;4.72;;;1.87;;
20476;SDS011;10397;50.948;11.092;2022-07-29T15:20:51;5.25;;;1.52;;
20476;SDS011;10397;50.948;11.092;2022-07-29T15:23:23;7.92;;;1.60;;
20476;SDS011;10397;50.948;11.092;2022-07-29T15:25:55;4.55;;;2.60;;
20476;SDS011;10397;50.948;11.092;2022-07-29T15:28:26;4.60;;;1.87;;
20476;SDS011;10397;50.948;11.092;2022-07-29T15:30:58;9.33;;;1.87;;
20476;SDS011;10397;50.948;11.092;2022-07-29T15:33:29;5.55;;;2.10;;
20476;SDS011;10397;50.948;11.092;2022-07-29T15:36:01;6.20;;;2.00;;
20476;SDS011;10397;50.948;11.092;2022-07-29T15:38:32;3.20;;;2.07;;